Accueil
METAR-TAF:

METAR-TAF

Aéroports :

Djibouti, Djibouti

Aéroport international Ambouli

latitude: 11-33N, longitude: 043-10E, altitude: 49 m

METAR: absent

Heure: 03:50 (00:50 UTC)

Prévision

Le bulletin a été fait il y a 2 heures et 50 minutes, à 22:00 UTC
Prévision valable du 22 à 00 UTC au 22 à 24 UTC
Vent kt de nord
Visibilité 10 km ou plus
Nuages épars à une hauteur de 2000 ft
Evoluant progressivement
du 22 à 06 UTC au 22 à 15 UTC
Vent 3 kt de direction variable

TAF: HDAM 212200Z 2200/2224 00000KT 9999 SCT020 BECMG 2206/2215 08010KT VRB03KT

Observations et prévisions météorologiques de plus de 4000 aéroports (messages METAR et TAF).

Les stations disponibles sont représentées par des disques jaunes et rouges sur la carte.

Passer la souris dessus pour voir le nom de la station.

Cliquer dessus pour voir les observations et prévisions météorologiques.

Pour changer de carte: cliquez sur les boutons verts avec une croix noire pour zoomer, sur le bouton vert avec un tiret pour effectuer un zoom arrière, ou sur les flèches vertes pour les cartes adjacentes.


METAR-TAF: